Historique des mesures à Cassis (13260), France
Quotidien Résumé Décembre 3, 2017 Unités:  Métrique    US   Métrique/US
« Précédent (Jour)
Suivant (Jour) »
Quotidien Hebdomadaire Mensuel Annuel Période au choix
  Maximum: Minimum: Moyenne:
Température: TemperatureC °C 1.6 °C 4.2 °C
Point de rosée: DewpointC °C -3.3 °C -1.8 °C
Humidité: Humidity % 57 % 61 %
Vitesse du vent: 0 km/h 0 km/h 11.3 km/h
Rafales: 0 km/h - -
Vent:- - SSW
Pression: PressurehPa hPa 1012.8 hPa -
Précipitations: 0.0 mm    
Historical Graphs
 
 
Mesures pour : Décembre 3, 2017
Heure Temperature Point de rosée Pression Vent Vitesse du vent Rafales Humidité Pluie (par heure) Conditions
TemperatureC °C DewpointC °C PressurehPa hPa Calm     Humidity % HourlyPrecipMM mm SoftwareType W/m2
00:10 4.4 °C -0.8 °C 1012.8 hPa NW 19.2 km/h 21.6 km/h 69 % 0.0 mm open2300-1.11 W/m2
01:11 4.3 °C -0.9 °C 1013.1 hPa Calm     69 % 0.0 mm open2300-1.11 W/m2
03:11 3.8 °C -1.6 °C 1013.4 hPa East 5.6 km/h 9.3 km/h 68 % 0.0 mm open2300-1.11 W/m2
04:10 3.4 °C -1.7 °C 1013.8 hPa Calm     69 % 0.0 mm open2300-1.11 W/m2
05:11 2.7 °C -2.0 °C 1014.1 hPa NNW 19.2 km/h 19.6 km/h 71 % 0.0 mm open2300-1.11 W/m2
06:10 2.1 °C -2.3 °C 1014.8 hPa NNW 11.6 km/h 26.7 km/h 73 % 0.0 mm open2300-1.11 W/m2
07:11 1.8 °C -2.6 °C 1015.5 hPa Calm     73 % 0.0 mm open2300-1.11 W/m2
08:10 1.6 °C -2.8 °C 1015.8 hPa NNE 11.6 km/h 21.6 km/h 73 % 0.0 mm open2300-1.11 W/m2
10:10 3.9 °C -1.9 °C 1016.1 hPa Calm   2.3 km/h 66 % 0.0 mm open2300-1.11 W/m2
11:11 5.7 °C -1.4 °C 1016.5 hPa NW 21.6 km/h 37.5 km/h 60 % 0.0 mm open2300-1.11 W/m2
12:10 6.3 °C -1.2 °C 1016.1 hPa WNW 20.3 km/h 30.7 km/h 59 % 0.0 mm open2300-1.11 W/m2
13:11 6.9 °C -1.1 °C 1016.5 hPa North 17.9 km/h 33.6 km/h 57 % 0.0 mm open2300-1.11 W/m2
14:10 7.1 °C -0.6 °C 1016.5 hPa NW 57.9 km/h 57.9 km/h 58 % 0.0 mm open2300-1.11 W/m2
15:11 7.1 °C -0.8 °C 1016.8 hPa WNW 29.5 km/h 29.5 km/h 57 % 0.0 mm open2300-1.11 W/m2
16:10 6.7 °C -1.2 °C 1017.2 hPa North 12.2 km/h 15.6 km/h 57 % 0.0 mm open2300-1.11 W/m2
17:11 5.8 °C -1.9 °C 1017.8 hPa NW 14 km/h 23.8 km/h 58 % 0.0 mm open2300-1.11 W/m2
18:10 5.2 °C -2.2 °C 1018.8 hPa NNE 9.3 km/h 9.3 km/h 59 % 0.0 mm open2300-1.11 W/m2
19:11 4.4 °C -2.7 °C 1019.9 hPa Calm   7.6 km/h 60 % 0.0 mm open2300-1.11 W/m2
20:10 3.8 °C -2.8 °C 1020.9 hPa Calm     62 % 0.0 mm open2300-1.11 W/m2
21:11 3.6 °C -2.8 °C 1020.9 hPa NNE 8 km/h 8 km/h 63 % 0.0 mm open2300-1.11 W/m2
22:10 3.1 °C -3.3 °C 1021.6 hPa Calm   21.6 km/h 63 % 0.0 mm open2300-1.11 W/m2
23:11 3.6 °C -3.1 °C 1021.9 hPa Calm   5.1 km/h 62 % 0.0 mm open2300-1.11 W/m2
Observations météo à CASSIS
WU-History script by Weather Underground - 1 mb